Moffit, North Dakota
Current Conditions -  °F | °C
As of 1:52 AM on Tuesday 27 Jan 2015 (Local Time) from KBIS Reporting Station
Clear Clear  
Wind Chill: 30°   Ceiling: Unl
Heat Index: 30°   Visibility: 10mi
Dew Point: 28°   Wind: 3mph
Humidity: 92%   Direction: 120°ESE
Pressure: 29.94"   Gusts: NA
Location:  46.68°N, 100.3°W
Report Text: KBIS 270752Z AUTO 12003KT 10SM CLR M01/M02 A2994 RMK AO2 SLP155 T10111022
Loading
Personal Weather Stations






























Interactive Weather Map New forecast layout! Learn more

10-Day Weather Forecast

Advertisements
Track Severe Weather on mobile